Time;durP1;ratioP1;P1;durP2;ratioP2;P2;SDS_P1;SDS_P2;PMS_P1;PMS_P2;Temp;Humidity;BMP_temperature;BMP_pressure;BME280_temperature;BME280_humidity;BME280_pressure;Samples;Min_cycle;Max_cycle;Signal;HPM_P1;HPM_P2
2023/01/01 00:03:28;;;;;;;1999.90;999.90;;;;;;;12.30;82.17;99378.69;8213811;28;20129;-79
2023/01/01 00:07:29;;;;;;;1999.90;999.90;;;;;;;12.27;82.34;99383.94;8227234;28;20924;-80
2023/01/01 00:11:31;;;;;;;1999.90;999.90;;;;;;;12.23;82.70;99385.72;8232205;28;20062;-81
2023/01/01 00:15:32;;;;;;;1999.90;999.90;;;;;;;12.23;83.05;99388.34;8217863;28;20661;-80
2023/01/01 00:19:41;;;;;;;1999.90;999.90;;;;;;;12.24;83.06;99378.78;8214661;28;20050;-80
2023/01/01 00:23:42;;;;;;;1999.90;999.90;;;;;;;12.17;83.38;99370.16;8229429;28;20079;-80
2023/01/01 00:27:45;;;;;;;1999.90;999.90;;;;;;;12.17;83.65;99375.38;8224071;28;20046;-81
2023/01/01 00:31:46;;;;;;;1999.90;999.90;;;;;;;12.16;83.70;99378.84;8217091;28;20054;-79
2023/01/01 00:35:48;;;;;;;1999.90;999.90;;;;;;;12.16;83.22;99386.66;8668135;23;20503;-80
2023/01/01 00:39:49;;;;;;;1999.90;999.90;;;;;;;12.19;83.50;99375.34;8232345;28;20141;-80
2023/01/01 00:43:51;;;;;;;1999.90;999.90;;;;;;;12.23;83.11;99372.72;8240228;28;20051;-81
2023/01/01 00:47:56;;;;;;;1999.90;999.90;;;;;;;12.23;82.93;99377.91;8213935;28;20672;-81
2023/01/01 00:51:58;;;;;;;1999.90;999.90;;;;;;;12.25;82.80;99380.50;8239330;28;20049;-83
2023/01/01 00:55:59;;;;;;;1999.90;999.90;;;;;;;12.28;82.63;99372.66;8227450;28;20135;-81
2023/01/01 01:00:04;;;;;;;1999.90;999.90;;;;;;;12.25;82.73;99370.94;8237568;28;20316;-83
2023/01/01 01:04:07;;;;;;;1999.90;999.90;;;;;;;12.27;82.36;99377.00;8219817;28;20046;-80
2023/01/01 01:08:09;;;;;;;1999.90;999.90;;;;;;;12.23;82.74;99379.66;8226281;28;20073;-79
2023/01/01 01:12:10;;;;;;;1999.90;999.90;;;;;;;12.22;81.92;99380.53;8230545;28;20074;-79
2023/01/01 01:16:23;;;;;;;1999.90;999.90;;;;;;;12.24;81.61;99397.88;8229551;28;20142;-80
2023/01/01 01:20:24;;;;;;;1999.90;999.90;;;;;;;12.24;82.15;99399.59;8234714;28;20484;-80
2023/01/01 01:24:26;;;;;;;1999.90;999.90;;;;;;;12.23;81.56;99398.75;8239607;28;20134;-80
2023/01/01 01:28:29;;;;;;;1999.90;999.90;;;;;;;12.17;82.19;99390.97;8239222;28;20129;-80
2023/01/01 01:32:31;;;;;;;1999.90;999.90;;;;;;;12.16;82.17;99381.44;8224332;28;20077;-80
2023/01/01 01:36:32;;;;;;;1999.90;999.90;;;;;;;12.10;82.10;99386.72;8232652;28;20077;-80
2023/01/01 01:40:34;;;;;;;1999.90;999.90;;;;;;;12.14;82.03;99396.22;8221172;28;20445;-80
2023/01/01 01:45:05;;;;;;;1999.90;999.90;;;;;;;12.16;81.96;99412.69;8242903;28;20038;-81
2023/01/01 01:49:16;;;;;;;1999.90;999.90;;;;;;;12.16;81.64;99407.47;8225113;28;20051;-81
2023/01/01 01:53:23;;;;;;;1999.90;999.90;;;;;;;12.12;81.91;99415.34;8234447;28;20046;-81
2023/01/01 01:57:24;;;;;;;1999.90;999.90;;;;;;;12.13;81.71;99410.13;8255156;28;20042;-80
2023/01/01 02:01:26;;;;;;;1999.90;999.90;;;;;;;12.04;81.95;99412.84;8222288;28;20078;-81
2023/01/01 02:05:29;;;;;;;1999.90;999.90;;;;;;;12.02;81.95;99407.63;8235929;28;20050;-81
2023/01/01 02:09:31;;;;;;;1999.90;999.90;;;;;;;11.99;82.26;99414.59;8238966;28;20034;-82
2023/01/01 02:13:32;;;;;;;1999.90;999.90;;;;;;;11.99;82.04;99410.25;8233443;28;20051;-81
2023/01/01 02:17:42;;;;;;;1999.90;999.90;;;;;;;11.96;82.05;99415.50;8231799;28;20491;-80
2023/01/01 02:22:13;;;;;;;1999.90;999.90;;;;;;;11.93;81.99;99419.88;8253897;28;20043;-80
2023/01/01 02:26:41;;;;;;;1999.90;999.90;;;;;;;11.90;82.31;99404.28;8231880;28;20053;-81
2023/01/01 02:30:45;;;;;;;1999.90;999.90;;;;;;;11.89;82.07;99419.03;8221133;28;20113;-79
2023/01/01 02:34:58;;;;;;;1999.90;999.90;;;;;;;11.90;82.00;99412.97;8265228;28;20734;-80
2023/01/01 02:39:04;;;;;;;1999.90;999.90;;;;;;;11.89;81.91;99418.19;8288984;28;20061;-80
2023/01/01 02:43:05;;;;;;;1999.90;999.90;;;;;;;11.96;80.64;99417.22;8282500;28;20042;-81
2023/01/01 02:47:20;;;;;;;1999.90;999.90;;;;;;;11.95;80.88;99411.16;8291029;28;20068;-80
2023/01/01 02:51:21;;;;;;;1999.90;999.90;;;;;;;11.95;81.05;99413.78;8297072;28;20042;-79
2023/01/01 02:55:43;;;;;;;1999.90;999.90;;;;;;;11.89;81.11;99423.38;8282694;28;20088;-80
2023/01/01 03:04:30;;;;;;;1999.90;999.90;;;;;;;11.91;80.46;99421.63;8296129;28;20045;-81
2023/01/01 03:08:46;;;;;;;1999.90;999.90;;;;;;;11.92;80.23;99421.59;8284180;28;20045;-80
2023/01/01 03:12:59;;;;;;;1999.90;999.90;;;;;;;11.95;79.77;99418.97;8303782;28;20046;-81
2023/01/01 03:17:06;;;;;;;1999.90;999.90;;;;;;;11.90;80.50;99425.09;8259549;28;20049;-80
2023/01/01 03:21:11;;;;;;;1999.90;999.90;;;;;;;11.95;79.45;99418.97;8312374;28;20053;-80
2023/01/01 03:25:15;;;;;;;1999.90;999.90;;;;;;;11.98;79.50;99420.69;8298657;28;20410;-79
2023/01/01 03:29:17;;;;;;;1999.90;999.90;;;;;;;11.98;79.74;99408.53;8298130;28;20041;-80
2023/01/01 03:33:28;;;;;;;1999.90;999.90;;;;;;;12.01;79.47;99410.22;8279471;28;20074;-80
2023/01/01 03:37:31;;;;;;;1999.90;999.90;;;;;;;12.12;78.70;99410.13;8307917;28;20122;-80
2023/01/01 03:41:58;;;;;;;1999.90;999.90;;;;;;;12.13;78.27;99402.31;8283917;28;20030;-80
2023/01/01 03:46:01;;;;;;;1999.90;999.90;;;;;;;12.16;77.88;99409.22;8266086;28;20128;-79
2023/01/01 03:50:04;;;;;;;1999.90;999.90;;;;;;;12.17;78.02;99413.53;8282495;28;20046;-80
2023/01/01 03:54:18;;;;;;;;;;;;;;;12.21;77.98;99412.63;8277423;28;20672;-80
2023/01/01 03:58:26;;;;;;;1999.90;999.90;;;;;;;12.25;77.29;99412.59;8305686;28;19985;-82
2023/01/01 04:02:52;;;;;;;1999.90;999.90;;;;;;;12.28;76.90;99409.09;8281222;28;20057;-81
2023/01/01 04:06:56;;;;;;;1999.90;999.90;;;;;;;12.29;76.64;99422.09;8286779;28;20501;-80
2023/01/01 04:12:00;;;;;;;1999.90;999.90;;;;;;;12.32;76.30;99424.66;8288275;28;20559;-81
2023/01/01 04:15:26;;;;;;;1999.90;999.90;;;;;;;12.32;76.25;99421.19;8286396;28;20550;-81
2023/01/01 04:19:28;;;;;;;1999.90;999.90;;;;;;;12.29;76.72;99424.69;8270821;28;20054;-79
2023/01/01 04:23:29;;;;;;;1999.90;999.90;;;;;;;12.25;76.46;99420.41;8285795;28;20049;-81
2023/01/01 04:27:31;;;;;;;1999.90;999.90;;;;;;;12.27;76.25;99423.84;8283986;28;20128;-81
2023/01/01 04:31:34;;;;;;;1999.90;999.90;;;;;;;12.30;76.56;99428.16;8287073;28;20049;-82
2023/01/01 04:35:35;;;;;;;1999.90;999.90;;;;;;;12.24;76.72;99436.06;8248982;28;20112;-81
2023/01/01 04:39:37;;;;;;;1999.90;999.90;;;;;;;12.30;75.95;99439.44;8272116;28;20034;-82
2023/01/01 04:43:38;;;;;;;1999.90;999.90;;;;;;;12.29;75.93;99444.66;8269132;28;20076;-82
2023/01/01 04:47:40;;;;;;;1999.90;999.90;;;;;;;12.30;75.64;99454.19;8261465;28;20113;-82
2023/01/01 04:51:41;;;;;;;1999.90;999.90;;;;;;;12.30;75.92;99456.81;8272971;28;20348;-81
2023/01/01 04:55:43;;;;;;;1999.90;999.90;;;;;;;12.20;76.88;99461.22;8276364;28;20041;-82
2023/01/01 04:59:44;;;;;;;1999.90;999.90;;;;;;;12.17;76.63;99463.00;8273190;28;20049;-81
2023/01/01 05:03:47;;;;;;;1999.90;999.90;;;;;;;12.10;77.08;99454.41;8259488;28;20050;-81
2023/01/01 05:07:48;;;;;;;1999.90;999.90;;;;;;;12.14;77.11;99468.25;8269875;28;20157;-81
2023/01/01 05:11:50;;;;;;;1999.90;999.90;;;;;;;12.05;77.00;99470.06;8272793;28;20801;-80
2023/01/01 05:15:51;;;;;;;1999.90;999.90;;;;;;;12.00;77.35;99478.78;8266054;28;20610;-80
2023/01/01 05:19:52;;;;;;;1999.90;999.90;;;;;;;12.02;77.29;99488.28;8286669;28;20042;-81
2023/01/01 05:23:56;;;;;;;1999.90;999.90;;;;;;;12.03;77.26;99489.19;8267279;28;20057;-81
2023/01/01 05:27:57;;;;;;;1999.90;999.90;;;;;;;12.01;76.77;99490.91;8289099;28;20746;-80
2023/01/01 05:31:58;;;;;;;1999.90;999.90;;;;;;;12.00;76.85;99489.19;8261104;28;20054;-81
2023/01/01 05:36:01;;;;;;;1999.90;999.90;;;;;;;11.95;77.41;99504.84;8292804;28;20111;-80
2023/01/01 05:40:03;;;;;;;1999.90;999.90;;;;;;;11.93;77.69;99509.19;8309088;28;20441;-81
2023/01/01 05:44:07;;;;;;;1999.90;999.90;;;;;;;11.93;77.54;99517.00;8298872;28;20060;-80
2023/01/01 05:48:12;;;;;;;1999.90;999.90;;;;;;;11.91;77.24;99515.28;8288407;28;20360;-82
2023/01/01 05:52:13;;;;;;;1999.90;999.90;;;;;;;11.88;77.73;99507.53;8285545;28;20034;-82
2023/01/01 05:56:16;;;;;;;1999.90;999.90;;;;;;;11.92;77.29;99511.81;8292582;28;20049;-82
2023/01/01 06:00:18;;;;;;;1999.90;999.90;;;;;;;11.94;77.26;99528.28;8265414;28;20046;-80
2023/01/01 06:04:19;;;;;;;1999.90;999.90;;;;;;;11.93;77.46;99530.00;8276474;28;20062;-81
2023/01/01 06:08:21;;;;;;;1999.90;999.90;;;;;;;11.97;77.06;99536.06;8289348;28;20560;-80
2023/01/01 06:12:22;;;;;;;1999.90;999.90;;;;;;;11.95;76.93;99543.00;8301674;28;20084;-79
2023/01/01 06:16:25;;;;;;;1999.90;999.90;;;;;;;11.93;77.18;99526.56;8270186;28;20060;-79
2023/01/01 06:20:27;;;;;;;1999.90;999.90;;;;;;;11.98;76.73;99535.19;8281718;28;20045;-79
2023/01/01 06:24:28;;;;;;;1999.90;999.90;;;;;;;12.00;76.68;99533.41;8271583;28;20053;-80
2023/01/01 06:28:39;;;;;;;1999.90;999.90;;;;;;;11.96;76.69;99530.00;8279585;28;20092;-80
2023/01/01 06:32:41;;;;;;;1999.90;999.90;;;;;;;11.93;76.83;99547.38;8278185;28;20128;-80
2023/01/01 06:36:42;;;;;;;1999.90;999.90;;;;;;;11.90;76.53;99543.06;8282455;28;20060;-79
2023/01/01 06:40:53;;;;;;;1999.90;999.90;;;;;;;11.87;77.11;99556.09;8278702;28;20088;-79
2023/01/01 06:44:54;;;;;;;1999.90;999.90;;;;;;;11.83;77.57;99567.38;8276832;28;20056;-79
2023/01/01 06:49:05;;;;;;;1999.90;999.90;;;;;;;11.84;77.03;99587.31;8270806;28;20072;-79
2023/01/01 06:53:07;;;;;;;1999.90;999.90;;;;;;;11.86;77.34;99588.19;8256420;28;20560;-80
2023/01/01 06:57:08;;;;;;;1999.90;999.90;;;;;;;11.88;77.24;99585.56;8259786;28;20085;-79
2023/01/01 07:01:14;;;;;;;1999.90;999.90;;;;;;;11.91;76.79;99588.16;8298986;28;20066;-79
2023/01/01 07:05:16;;;;;;;1999.90;999.90;;;;;;;11.91;77.06;99595.97;8293950;28;20108;-79
2023/01/01 07:09:17;;;;;;;1999.90;999.90;;;;;;;11.89;76.38;99588.16;8292722;28;20133;-79
2023/01/01 07:13:19;;;;;;;1999.90;999.90;;;;;;;11.84;76.64;99574.31;8280925;28;20054;-79
2023/01/01 07:17:20;;;;;;;1999.90;999.90;;;;;;;11.83;76.44;99588.19;8273681;28;20145;-79
2023/01/01 07:21:25;;;;;;;1999.90;999.90;;;;;;;11.76;77.26;99589.06;8262714;28;21316;-79
2023/01/01 07:25:30;;;;;;;1999.90;999.90;;;;;;;11.74;76.53;99589.09;8282406;28;20477;-80
2023/01/01 07:29:32;;;;;;;1999.90;999.90;;;;;;;11.76;77.11;99596.88;8280883;28;20057;-80
2023/01/01 07:33:33;;;;;;;1999.90;999.90;;;;;;;11.69;76.93;99595.19;8293536;28;20053;-80
2023/01/01 07:37:35;;;;;;;1999.90;999.90;;;;;;;11.69;76.75;99598.66;8294011;28;20132;-81
2023/01/01 07:41:36;;;;;;;1999.90;999.90;;;;;;;11.64;77.41;99599.53;8303067;28;20084;-81
2023/01/01 07:45:38;;;;;;;1999.90;999.90;;;;;;;11.62;77.17;99607.34;8294379;28;20053;-82
2023/01/01 07:49:39;;;;;;;1999.90;999.90;;;;;;;11.61;77.43;99612.56;8286466;28;20037;-78
2023/01/01 07:53:41;;;;;;;1999.90;999.90;;;;;;;11.61;77.36;99616.03;8299076;28;20067;-79
2023/01/01 07:57:43;;;;;;;1999.90;999.90;;;;;;;11.63;77.41;99624.69;8282968;28;20034;-79
2023/01/01 08:01:45;;;;;;;;;;;;;;;11.62;77.20;99620.34;8278740;28;20099;-80
2023/01/01 08:05:47;;;;;;;1999.90;999.90;;;;;;;11.64;77.57;99621.22;8298458;28;19921;-78
2023/01/01 08:09:48;;;;;;;1999.90;999.90;;;;;;;11.64;77.79;99625.53;8282304;28;20065;-79
2023/01/01 08:13:50;;;;;;;1999.90;999.90;;;;;;;11.70;77.08;99641.16;8300506;28;20133;-79
2023/01/01 08:18:09;;;;;;;1999.90;999.90;;;;;;;11.76;76.84;99638.50;8293241;28;20066;-79
2023/01/01 08:22:11;;;;;;;1999.90;999.90;;;;;;;11.78;76.53;99622.03;8295996;28;20038;-81
2023/01/01 08:26:15;;;;;;;1999.90;999.90;;;;;;;11.85;76.35;99627.19;8284507;28;20065;-80
2023/01/01 08:30:16;;;;;;;1999.90;999.90;;;;;;;11.91;75.79;99641.06;8282138;28;20133;-80
2023/01/01 08:34:18;;;;;;;1999.90;999.90;;;;;;;12.01;75.50;99644.44;8282505;28;20860;-79
2023/01/01 08:38:19;;;;;;;1999.90;999.90;;;;;;;12.14;74.73;99640.03;8308604;28;20136;-78
2023/01/01 08:42:21;;;;;;;1999.90;999.90;;;;;;;12.26;74.77;99639.97;8278255;28;20053;-79
2023/01/01 08:46:22;;;;;;;1999.90;999.90;;;;;;;12.43;74.42;99632.88;8266884;28;20049;-78
2023/01/01 08:50:25;;;;;;;1999.90;999.90;;;;;;;12.57;73.61;99628.44;8290552;28;22059;-78
2023/01/01 08:54:26;;;;;;;1999.90;999.90;;;;;;;12.64;73.18;99637.06;8275978;28;20370;-78
2023/01/01 08:58:27;;;;;;;1999.90;999.90;;;;;;;12.77;72.36;99637.81;8297546;28;20068;-79
2023/01/01 09:02:30;;;;;;;1999.90;999.90;;;;;;;12.89;72.37;99641.13;8287062;28;20161;-78
2023/01/01 09:06:32;;;;;;;1999.90;999.90;;;;;;;13.01;71.43;99642.78;8295624;28;20046;-79
2023/01/01 09:10:34;;;;;;;1999.90;999.90;;;;;;;13.00;71.22;99633.22;8273717;28;20042;-80
2023/01/01 09:14:36;;;;;;;1999.90;999.90;;;;;;;12.97;71.06;99636.72;8298196;28;20073;-80
2023/01/01 09:18:37;;;;;;;1999.90;999.90;;;;;;;13.18;71.00;99632.19;8292017;28;20133;-80
2023/01/01 09:22:39;;;;;;;1999.90;999.90;;;;;;;13.35;70.40;99651.13;8298508;28;20735;-76
2023/01/01 09:26:40;;;;;;;1999.90;999.90;;;;;;;13.63;68.95;99650.78;8297341;28;20685;-80
2023/01/01 09:30:42;;;;;;;1999.90;999.90;;;;;;;13.57;68.85;99652.59;8296071;28;20080;-80
2023/01/01 09:34:43;;;;;;;1999.90;999.90;;;;;;;13.49;68.91;99649.22;8291914;28;20068;-81
